Date,TemperatureHighF,TemperatureAvgF,TemperatureLowF,DewpointHighF,DewpointAvgF,DewpointLowF,HumidityHigh,HumidityAvg,HumidityLow,PressureMaxIn,PressureMinIn,WindSpeedMaxMPH,WindSpeedAvgMPH,GustSpeedMaxMPH,PrecipitationSumIn
2013-6-1,80,71,64,67,63,59,94,76,54,29.83,29.66,0,0,0,0.02
2013-6-2,72,66,55,65,54,43,88,65,54,29.95,29.63,0,0,0,0.00
2013-6-3,70,57,46,45,39,33,78,52,28,30.06,29.95,0,0,0,0.01
2013-6-4,71,62,52,49,41,26,78,47,27,30.16,30.06,0,0,0,0.00
2013-6-5,73,62,52,48,41,32,62,47,27,30.15,29.96,0,0,0,0.00
2013-6-6,69,62,57,53,48,40,67,59,52,29.97,29.82,0,0,0,0.00
2013-6-7,61,57,52,52,50,48,88,77,67,29.89,29.84,0,0,0,0.00
2013-6-8,72,63,57,54,51,49,77,65,46,30.05,29.89,0,0,0,0.00
2013-6-9,61,59,58,54,53,53,85,82,74,30.06,30.05,0,0,0,0.00
2013-6-10,69,68,66,67,66,64,95,93,92,29.75,29.71,0,0,0,0.16
2013-6-11,83,72,64,65,63,60,96,74,47,29.85,29.73,0,0,0,0.29
2013-6-12,75,72,67,67,65,61,92,79,69,29.83,29.62,0,0,0,0.10
2013-6-13,78,69,60,65,57,51,96,69,41,29.87,29.48,0,0,0,0.28
2013-6-14,78,68,60,56,52,44,77,59,30,30.03,29.87,0,0,0,0.04
2013-6-15,79,68,58,63,57,54,88,72,45,30.03,29.89,0,0,0,0.02
2013-6-16,83,73,65,63,57,48,93,62,32,29.89,29.76,0,0,0,0.11
2013-6-17,87,73,62,61,56,49,77,57,28,29.88,29.79,0,0,0,0.00
2013-6-18,73,65,56,61,51,38,91,65,37,30.04,29.84,0,0,0,0.00
2013-6-19,74,62,51,54,46,38,77,56,39,30.14,30.04,0,0,0,0.00
2013-6-20,80,69,55,55,52,50,84,58,37,30.17,30.12,0,0,0,0.00
2013-6-21,86,75,59,65,60,52,83,61,43,30.17,30.01,0,0,0,0.00
2013-6-22,86,74,69,71,65,59,92,74,58,30.06,29.94,0,0,0,0.00
2013-6-23,89,80,69,69,67,63,93,67,44,30.00,29.92,0,0,0,0.00
2013-6-24,87,78,68,70,67,63,90,70,52,30.03,29.87,0,0,0,0.00
2013-6-25,86,78,68,72,68,63,93,74,57,29.90,29.77,0,0,0,0.07
2013-6-26,82,76,67,71,68,66,95,77,63,29.83,29.70,0,0,0,0.21
2013-6-27,82,72,66,72,68,65,95,87,59,29.72,29.59,0,0,0,0.66
2013-6-28,78,68,66,65,63,59,95,85,59,29.60,29.48,0,0,0,0.01
2013-6-29,73,68,64,65,60,53,93,79,61,29.70,29.50,0,0,0,0.03
2013-6-30,78,69,62,58,55,45,84,63,43,29.90,29.69,0,0,0,0.05